Terminal Aerodrome Forecast
Issued by NWS Bismarck, ND

Home | Current Version | Previous Version | Text Only | Print | Product List | Glossary On
Versions: 1 2 3 4 5 6 7 8 9 10 11 12 13 14 15 16
000
FTUS43 KBIS 280500
TAFBIS
TAF
KBIS 280539Z 2806/2906 34002KT P6SM BKN050 OVC100
      TEMPO 2806/2808 BKN045 OVC060
     FM280800 05008KT P6SM VCSH SCT020 OVC045
      TEMPO 2808/2811 -SHSN OVC025
     FM281100 06008KT P6SM -SN BKN025 OVC040
     FM282200 05007KT P6SM SCT020 BKN060=

USA.gov is the U.S. government's official web portal to all federal, state and local government web resources and services.